Dickinson Theodore Roosevelt Regional Airport

Airport
ICAO code: 
KDIK
Summary
ICAO Region: 
NAM
Territory: 
Location: 
Dickinson, North Dakota,
Elevation: 
2592 ft
Coordinates: 
Aerial View: 
46° 47' 50.399" N, 102° 48' 6.7" W
Airport CFIT: 
Altimeter Temperature Error Correction
Airport WX: 
Cumulonimbus
Metar
Observation
KDIK 021616Z AUTO 11004KT 4SM RA BR OVC055 01/M01 A2988 RMK AO2 P0003 T00111011
Station
Dickinson, Dickinson Municipal Airport
Date/Time
2021-12-02 16:16:00
Wind direction
110°
Wind speed
04 kts
Lowest cloud amount
overcast
Temperature
1.1°C
Dew point
-1.1°C
Humidity
85%
Weather condition

Description

Dickinson Theodore Roosevelt Regional Airport, formerly known as Dickinson Municipal Airport, is a public use airport located 9 km south of the central business district of Dickinson, a city in Stark County, North Dakota.

Climatology

Humid Continental climate (Köppen climate classification Dfb) - Variable weather patterns and a large seasonal temperature variance. Summers are often warm and humid with frequent thunderstorms and winters can be very cold with frequent snowfall and persistent snow cover.

Runways

Designator Length Width Surface Rops
7/25 1433 23 ASP Yes/Yes
14/32 1951 30 ASP Yes/Yes
Airport map: 
Aerial View: 

SKYbrary Partners:

Safety knowledge contributed by: